VLVT/VTE METAR and TAF weather

Enter ICAO airport designator
Station Type Date Time Source
VLVT METAR 2022/01/29 12:00 UTC NOAA

VLVT 291200Z 32002KT 5000 BR FEW050 SCT200 25/15 Q1007 NOSIG


Station Type Date Time Source
VLVT Decoded METAR 2022/01/29 12:00 UTC NOAA

Vientiane, Laos (VLVT) 17-57N 102-34E 171M
Jan 29, 2022 - 07:00 AM EST / 2022.01.29 1200 UTC
Wind: from the NW (320 degrees) at 2 MPH (2 KT):0
Visibility: 3 mile(s):0
Sky conditions: partly cloudy
Weather: mist
Temperature: 77 F (25 C)
Dew Point: 59 F (15 C)
Relative Humidity: 53%
Pressure (altimeter): 29.74 in. Hg (1007 hPa)
ob: VLVT 291200Z 32002KT 5000 BR FEW050 SCT200 25/15 Q1007 NOSIG
cycle: 12

Station Type Date Time Source
VLVT TAF 2022/01/29 12:39 UTC NOAA

TAF TAF VLVT 291100Z 2912/3012 34004KT 4000 BR SCT050 FEW200

Example: see airport list